Terminal Aerodrome Forecast
Issued by NWS

Home | Current Version | Previous Version | Text Only | Print | Product List | Glossary On
Versions: 1 2 3 4 5 6 7 8 9 10 11 12 13 14 15 16
000
FTUS43 KDLH 230500
TAFBRD
TAF
KBRD 230520Z 2306/2406 VRB02KT P6SM SCT250
     FM231100 14003KT P6SM BKN250
     FM231500 14010KT P6SM BKN080
     FM231800 14012G17KT P6SM -RA OVC040
     FM240000 12012KT 6SM -RA BR BKN020 OVC035
     FM240300 12011KT 4SM -RA BR OVC013=

USA.gov is the U.S. government's official web portal to all federal, state and local government web resources and services.